createdAt,value
2023-05-01T00:00:16.601Z,10.72
2023-05-01T00:01:16.589Z,10.74
2023-05-01T00:02:16.639Z,10.78
2023-05-01T00:03:18.652Z,10.76
2023-05-01T00:04:16.809Z,10.75
2023-05-01T00:05:16.562Z,10.71
2023-05-01T00:06:16.578Z,10.71
2023-05-01T00:07:16.579Z,10.68
2023-05-01T00:08:17.575Z,10.72
2023-05-01T00:09:18.576Z,10.59
2023-05-01T00:10:16.571Z,10.61
2023-05-01T00:11:16.545Z,10.63
2023-05-01T00:12:16.582Z,10.61
2023-05-01T00:13:16.522Z,10.60
2023-05-01T00:14:16.533Z,10.63
2023-05-01T00:15:17.547Z,10.61
2023-05-01T00:16:16.594Z,10.60
2023-05-01T00:17:17.017Z,10.63
2023-05-01T00:18:16.565Z,10.54
2023-05-01T00:19:17.511Z,10.63
2023-05-01T00:20:16.498Z,10.57
2023-05-01T00:21:17.506Z,10.54
2023-05-01T00:22:16.493Z,10.51
2023-05-01T00:23:16.481Z,10.57
2023-05-01T00:24:16.500Z,10.54
2023-05-01T00:25:16.514Z,10.56
2023-05-01T00:26:16.481Z,10.48
2023-05-01T00:27:17.481Z,10.54
2023-05-01T00:28:17.011Z,10.48
2023-05-01T00:29:16.454Z,10.42
2023-05-01T00:30:16.459Z,10.49
2023-05-01T00:31:16.535Z,10.44
2023-05-01T00:32:16.629Z,10.48
2023-05-01T00:33:17.491Z,10.46
2023-05-01T00:34:17.020Z,10.51
2023-05-01T00:35:17.025Z,10.44
2023-05-01T00:36:16.462Z,10.41
2023-05-01T00:37:16.422Z,10.46
2023-05-01T00:38:17.021Z,10.44
2023-05-01T00:39:17.477Z,10.48
2023-05-01T00:40:16.464Z,10.38
2023-05-01T00:41:17.019Z,10.33
2023-05-01T00:42:16.498Z,10.31
2023-05-01T00:43:16.408Z,10.37
2023-05-01T00:44:16.429Z,10.34
2023-05-01T00:45:17.402Z,10.31
2023-05-01T00:46:17.648Z,10.31
2023-05-01T00:47:17.578Z,10.28
2023-05-01T00:48:16.424Z,10.26
2023-05-01T00:49:16.886Z,10.28
2023-05-01T00:50:16.373Z,10.28
2023-05-01T00:51:17.400Z,10.26
2023-05-01T00:52:16.390Z,10.31
2023-05-01T00:53:17.576Z,10.35
2023-05-01T00:54:16.429Z,10.34
2023-05-01T00:55:16.370Z,10.28
2023-05-01T00:56:16.353Z,10.25
2023-05-01T00:57:17.352Z,10.26
2023-05-01T00:58:16.330Z,10.31
2023-05-01T00:59:16.345Z,10.23
2023-05-01T01:00:16.347Z,10.31
2023-05-01T01:01:16.370Z,10.26
2023-05-01T01:02:17.033Z,10.26
2023-05-01T01:03:17.365Z,10.30
2023-05-01T01:04:16.357Z,10.19
2023-05-01T01:05:16.354Z,10.26
2023-05-01T01:06:16.372Z,10.20
2023-05-01T01:07:16.304Z,10.20
2023-05-01T01:08:17.058Z,10.22
2023-05-01T01:09:17.295Z,10.23
2023-05-01T01:10:16.282Z,10.15
2023-05-01T01:11:17.019Z,10.17
2023-05-01T01:12:16.302Z,10.19
2023-05-01T01:13:17.023Z,10.15
2023-05-01T01:14:17.597Z,10.16
2023-05-01T01:15:17.302Z,10.13
2023-05-01T01:16:16.313Z,10.12
2023-05-01T01:17:17.082Z,9.98
2023-05-01T01:18:16.287Z,9.92
2023-05-01T01:19:16.257Z,10.04
2023-05-01T01:20:16.244Z,9.95
2023-05-01T01:21:17.296Z,10.04
2023-05-01T01:22:17.018Z,9.95
2023-05-01T01:23:16.222Z,10.01
2023-05-01T01:24:16.209Z,9.95
2023-05-01T01:25:16.197Z,9.86
2023-05-01T01:26:16.214Z,9.95
2023-05-01T01:27:17.202Z,9.94
2023-05-01T01:28:16.208Z,9.94
2023-05-01T01:29:16.290Z,9.89
2023-05-01T01:30:16.185Z,9.83
2023-05-01T01:31:16.247Z,9.80
2023-05-01T01:32:16.167Z,9.83
2023-05-01T01:33:17.180Z,9.86
2023-05-01T01:34:17.112Z,9.82
2023-05-01T01:35:17.278Z,9.79
2023-05-01T01:36:16.195Z,9.74
2023-05-01T01:37:17.608Z,9.72
2023-05-01T01:38:16.158Z,9.74
2023-05-01T01:39:18.024Z,9.74
2023-05-01T01:40:16.203Z,9.76
2023-05-01T01:41:16.120Z,9.76
2023-05-01T01:42:16.121Z,9.79
2023-05-01T01:43:16.123Z,9.76
2023-05-01T01:44:16.119Z,9.73
2023-05-01T01:45:17.164Z,9.74
2023-05-01T01:46:16.146Z,9.73
2023-05-01T01:47:16.094Z,9.73
2023-05-01T01:48:16.101Z,9.68
2023-05-01T01:49:18.498Z,9.73
2023-05-01T01:50:16.088Z,9.69
2023-05-01T01:51:17.095Z,9.77
2023-05-01T01:52:16.076Z,9.73
2023-05-01T01:53:16.072Z,9.80
2023-05-01T01:54:16.073Z,9.58
2023-05-01T01:55:16.088Z,9.77
2023-05-01T01:56:16.066Z,9.68
2023-05-01T01:57:17.056Z,9.66
2023-05-01T01:58:16.080Z,9.62
2023-05-01T01:59:16.082Z,9.62
2023-05-01T02:00:16.050Z,9.62
2023-05-01T02:01:16.063Z,9.55
2023-05-01T02:02:16.074Z,9.64
2023-05-01T02:03:17.647Z,9.58
2023-05-01T02:04:16.083Z,9.66
2023-05-01T02:05:16.003Z,9.64
2023-05-01T02:06:16.059Z,9.59
2023-05-01T02:07:15.995Z,9.55
2023-05-01T02:08:15.996Z,9.55
2023-05-01T02:09:16.998Z,9.54
2023-05-01T02:10:16.016Z,9.55
2023-05-01T02:11:15.988Z,9.58
2023-05-01T02:12:15.993Z,9.54
2023-05-01T02:13:15.964Z,9.56
2023-05-01T02:14:15.970Z,9.56
2023-05-01T02:15:16.968Z,9.44
2023-05-01T02:16:16.023Z,9.50
2023-05-01T02:17:16.536Z,9.39
2023-05-01T02:18:15.943Z,9.39
2023-05-01T02:19:15.942Z,9.41
2023-05-01T02:20:15.953Z,9.39
2023-05-01T02:21:16.940Z,9.39
2023-05-01T02:22:15.927Z,9.39
2023-05-01T02:23:15.916Z,9.37
2023-05-01T02:24:15.917Z,9.32
2023-05-01T02:25:15.915Z,9.32
2023-05-01T02:26:15.914Z,9.19
2023-05-01T02:27:16.919Z,9.25
2023-05-01T02:28:15.898Z,9.26
2023-05-01T02:29:16.569Z,9.18
2023-05-01T02:30:15.886Z,9.14
2023-05-01T02:31:15.912Z,9.11
2023-05-01T02:32:15.874Z,9.10
2023-05-01T02:33:16.871Z,9.14
2023-05-01T02:34:15.857Z,9.13
2023-05-01T02:35:15.849Z,9.08
2023-05-01T02:36:15.869Z,9.04
2023-05-01T02:37:15.845Z,9.16
2023-05-01T02:38:15.845Z,9.13
2023-05-01T02:39:16.872Z,9.10
2023-05-01T02:40:15.836Z,9.04
2023-05-01T02:41:15.868Z,8.99
2023-05-01T02:42:15.819Z,9.00
2023-05-01T02:43:15.808Z,9.11
2023-05-01T02:44:15.830Z,9.04
2023-05-01T02:45:16.810Z,9.10
2023-05-01T02:46:15.860Z,8.94
2023-05-01T02:47:15.871Z,8.95
2023-05-01T02:48:16.584Z,8.94
2023-05-01T02:49:15.780Z,9.00
2023-05-01T02:50:16.540Z,8.89
2023-05-01T02:51:16.798Z,8.95
2023-05-01T02:52:15.776Z,8.99
2023-05-01T02:53:16.997Z,8.89
2023-05-01T02:54:15.792Z,9.03
2023-05-01T02:55:15.774Z,8.89
2023-05-01T02:56:15.750Z,8.97
2023-05-01T02:57:18.093Z,8.94
2023-05-01T02:58:15.774Z,9.02
2023-05-01T02:59:15.746Z,8.91
2023-05-01T03:00:15.721Z,8.95
2023-05-01T03:01:15.790Z,8.91
2023-05-01T03:02:15.712Z,8.91
2023-05-01T03:03:16.762Z,8.88
2023-05-01T03:04:15.835Z,8.84
2023-05-01T03:05:15.707Z,8.87
2023-05-01T03:06:15.764Z,8.88
2023-05-01T03:07:15.692Z,8.89
2023-05-01T03:08:16.218Z,8.91
2023-05-01T03:09:16.714Z,8.91
2023-05-01T03:10:15.689Z,8.85
2023-05-01T03:11:17.124Z,8.88
2023-05-01T03:12:15.667Z,8.87
2023-05-01T03:13:15.653Z,8.79
2023-05-01T03:14:15.646Z,8.76
2023-05-01T03:15:16.653Z,8.74
2023-05-01T03:16:15.662Z,8.79
2023-05-01T03:17:16.541Z,8.79
2023-05-01T03:18:15.643Z,8.82
2023-05-01T03:19:15.632Z,8.74
2023-05-01T03:20:15.623Z,8.76
2023-05-01T03:21:16.646Z,8.74
2023-05-01T03:22:15.623Z,8.78
2023-05-01T03:23:15.600Z,8.78
2023-05-01T03:24:15.592Z,8.78
2023-05-01T03:25:16.098Z,8.79
2023-05-01T03:26:15.578Z,8.73
2023-05-01T03:27:18.549Z,8.76
2023-05-01T03:28:15.583Z,8.76
2023-05-01T03:29:15.567Z,8.84
2023-05-01T03:30:15.551Z,8.76
2023-05-01T03:31:15.553Z,8.88
2023-05-01T03:32:15.646Z,8.78
2023-05-01T03:33:16.553Z,8.79
2023-05-01T03:34:15.536Z,8.78
2023-05-01T03:35:15.672Z,8.79
2023-05-01T03:36:15.544Z,8.79
2023-05-01T03:37:15.542Z,8.76
2023-05-01T03:38:15.548Z,8.81
2023-05-01T03:39:16.545Z,8.78
2023-05-01T03:40:15.495Z,8.85
2023-05-01T03:41:15.495Z,8.82
2023-05-01T03:42:16.005Z,8.73
2023-05-01T03:43:15.500Z,8.81
2023-05-01T03:44:15.486Z,8.78
2023-05-01T03:45:16.535Z,8.81
2023-05-01T03:46:16.066Z,8.79
2023-05-01T03:47:15.458Z,8.76
2023-05-01T03:48:15.470Z,8.81
2023-05-01T03:49:15.462Z,8.81
2023-05-01T03:50:15.487Z,8.76
2023-05-01T03:51:17.043Z,8.81
2023-05-01T03:52:15.448Z,8.84
2023-05-01T03:53:15.501Z,8.85
2023-05-01T03:54:15.436Z,8.87
2023-05-01T03:55:15.504Z,8.84
2023-05-01T03:56:15.442Z,8.88
2023-05-01T03:57:16.454Z,8.84
2023-05-01T03:58:15.406Z,8.79
2023-05-01T03:59:15.402Z,8.81
2023-05-01T04:00:15.420Z,8.84
2023-05-01T04:01:15.408Z,8.76
2023-05-01T04:02:15.480Z,8.74
2023-05-01T04:03:16.502Z,8.85
2023-05-01T04:04:15.438Z,8.87
2023-05-01T04:05:15.400Z,8.82
2023-05-01T04:06:15.395Z,8.85
2023-05-01T04:07:15.377Z,8.88
2023-05-01T04:08:15.376Z,8.87
2023-05-01T04:09:16.349Z,8.89
2023-05-01T04:10:15.363Z,8.82
2023-05-01T04:11:15.330Z,8.88
2023-05-01T04:12:15.364Z,8.85
2023-05-01T04:13:16.101Z,8.87
2023-05-01T04:14:15.321Z,8.87
2023-05-01T04:15:16.339Z,8.87
2023-05-01T04:16:15.343Z,8.95
2023-05-01T04:17:15.327Z,8.89
2023-05-01T04:18:16.139Z,8.85
2023-05-01T04:19:15.313Z,8.87
2023-05-01T04:20:15.300Z,8.92
2023-05-01T04:21:16.315Z,8.97
2023-05-01T04:22:15.276Z,8.99
2023-05-01T04:23:15.291Z,8.94
2023-05-01T04:24:15.289Z,8.97
2023-05-01T04:25:15.280Z,8.91
2023-05-01T04:26:15.271Z,8.94
2023-05-01T04:27:16.266Z,8.89
2023-05-01T04:28:15.229Z,8.87
2023-05-01T04:29:16.054Z,8.92
2023-05-01T04:30:15.227Z,8.94
2023-05-01T04:31:15.317Z,9.00
2023-05-01T04:32:15.252Z,8.88
2023-05-01T04:33:16.259Z,8.94
2023-05-01T04:34:15.240Z,8.91
2023-05-01T04:35:15.237Z,8.92
2023-05-01T04:36:15.213Z,8.94
2023-05-01T04:37:15.185Z,9.03
2023-05-01T04:38:15.187Z,8.92
2023-05-01T04:39:16.196Z,8.89
2023-05-01T04:40:15.186Z,8.95
2023-05-01T04:41:15.169Z,8.94
2023-05-01T04:42:15.178Z,8.88
2023-05-01T04:43:15.208Z,9.00
2023-05-01T04:44:15.175Z,8.97
2023-05-01T04:45:16.184Z,8.92
2023-05-01T04:46:15.195Z,8.89
2023-05-01T04:47:15.143Z,8.97
2023-05-01T04:48:16.102Z,8.95
2023-05-01T04:49:15.132Z,8.92
2023-05-01T04:50:15.125Z,8.95
2023-05-01T04:51:16.173Z,8.91
2023-05-01T04:52:15.145Z,8.92
2023-05-01T04:53:15.138Z,8.97
2023-05-01T04:54:15.110Z,9.04
2023-05-01T04:55:15.125Z,8.95
2023-05-01T04:56:15.117Z,8.94
2023-05-01T04:57:17.048Z,9.03
2023-05-01T04:58:15.121Z,8.91
2023-05-01T04:59:15.130Z,8.91
2023-05-01T05:00:15.095Z,8.88
2023-05-01T05:01:15.168Z,8.95
2023-05-01T05:02:15.121Z,8.89
2023-05-01T05:03:16.163Z,8.94
2023-05-01T05:04:15.092Z,8.92
2023-05-01T05:05:15.051Z,8.92
2023-05-01T05:06:15.150Z,8.89
2023-05-01T05:07:15.046Z,8.94
2023-05-01T05:08:15.083Z,8.94
2023-05-01T05:09:18.688Z,8.92
2023-05-01T05:10:15.022Z,8.95
2023-05-01T05:11:15.045Z,8.97
2023-05-01T05:12:15.015Z,8.89
2023-05-01T05:13:15.570Z,8.95
2023-05-01T05:14:15.009Z,8.95
2023-05-01T05:15:16.015Z,9.06
2023-05-01T05:16:16.153Z,9.08
2023-05-01T05:17:15.013Z,9.08
2023-05-01T05:18:15.042Z,8.94
2023-05-01T05:19:15.007Z,8.97
2023-05-01T05:20:15.693Z,9.04
2023-05-01T05:21:16.035Z,8.95
2023-05-01T05:22:14.988Z,8.92
2023-05-01T05:23:14.973Z,9.08
2023-05-01T05:24:14.962Z,9.06
2023-05-01T05:25:14.962Z,9.02
2023-05-01T05:26:14.962Z,9.13
2023-05-01T05:27:16.040Z,9.11
2023-05-01T05:28:14.933Z,9.14
2023-05-01T05:29:14.947Z,9.06
2023-05-01T05:30:14.920Z,9.16
2023-05-01T05:31:14.916Z,9.23
2023-05-01T05:32:14.951Z,9.22
2023-05-01T05:33:15.956Z,9.28
2023-05-01T05:34:15.553Z,9.21
2023-05-01T05:35:14.921Z,9.23
2023-05-01T05:36:14.886Z,9.26
2023-05-01T05:37:14.891Z,9.32
2023-05-01T05:38:14.883Z,9.34
2023-05-01T05:39:15.888Z,9.36
2023-05-01T05:40:16.138Z,9.36
2023-05-01T05:41:14.881Z,9.44
2023-05-01T05:42:14.854Z,9.55
2023-05-01T05:43:14.874Z,9.58
2023-05-01T05:44:14.868Z,9.62
2023-05-01T05:45:15.922Z,9.64
2023-05-01T05:46:14.924Z,9.74
2023-05-01T05:47:14.880Z,9.76
2023-05-01T05:48:14.912Z,10.01
2023-05-01T05:49:14.833Z,10.04
2023-05-01T05:50:14.838Z,10.19
2023-05-01T05:51:15.867Z,10.22
2023-05-01T05:52:15.568Z,10.23
2023-05-01T05:53:14.840Z,10.44
2023-05-01T05:54:14.867Z,10.63
2023-05-01T05:55:14.863Z,10.78
2023-05-01T05:56:14.848Z,10.82
2023-05-01T05:57:16.562Z,10.87
2023-05-01T05:58:14.883Z,10.96
2023-05-01T05:59:17.288Z,11.05
2023-05-01T06:00:14.901Z,11.22
2023-05-01T06:01:14.874Z,11.30
2023-05-01T06:02:14.938Z,11.51
2023-05-01T06:03:16.017Z,11.59
2023-05-01T06:04:14.888Z,11.72
2023-05-01T06:05:14.910Z,11.72
2023-05-01T06:06:14.920Z,11.90
2023-05-01T06:07:14.889Z,12.00
2023-05-01T06:08:14.899Z,12.15
2023-05-01T06:09:15.930Z,12.20
2023-05-01T06:10:14.910Z,12.32
2023-05-01T06:11:14.923Z,12.36
2023-05-01T06:12:14.921Z,12.55
2023-05-01T06:13:15.068Z,12.62
2023-05-01T06:14:14.940Z,12.70
2023-05-01T06:15:15.971Z,12.83
2023-05-01T06:16:15.680Z,12.98
2023-05-01T06:17:14.974Z,13.11
2023-05-01T06:18:15.632Z,13.23
2023-05-01T06:19:15.577Z,13.42
2023-05-01T06:20:15.019Z,13.39
2023-05-01T06:21:16.026Z,13.50
2023-05-01T06:22:15.030Z,13.54
2023-05-01T06:23:15.584Z,13.70
2023-05-01T06:24:15.057Z,13.87
2023-05-01T06:25:15.054Z,13.92
2023-05-01T06:26:15.073Z,14.10
2023-05-01T06:27:16.588Z,14.23
2023-05-01T06:28:15.110Z,14.30
2023-05-01T06:29:15.587Z,14.40
2023-05-01T06:30:15.589Z,14.53
2023-05-01T06:31:15.175Z,14.55
2023-05-01T06:32:15.134Z,14.48
2023-05-01T06:33:16.182Z,14.60
2023-05-01T06:34:15.148Z,14.55
2023-05-01T06:35:15.145Z,14.65
2023-05-01T06:36:15.166Z,14.54
2023-05-01T06:37:15.194Z,14.60
2023-05-01T06:38:15.176Z,14.66
2023-05-01T06:39:16.232Z,14.77
2023-05-01T06:40:16.101Z,14.94
2023-05-01T06:41:15.221Z,14.91
2023-05-01T06:42:15.232Z,14.94
2023-05-01T06:43:15.272Z,14.97
2023-05-01T06:44:15.237Z,15.15
2023-05-01T06:45:16.322Z,15.24
2023-05-01T06:46:15.336Z,15.29
2023-05-01T06:47:15.344Z,15.36
2023-05-01T06:48:15.367Z,15.29
2023-05-01T06:49:15.345Z,15.36
2023-05-01T06:50:16.689Z,15.44
2023-05-01T06:51:16.355Z,15.49
2023-05-01T06:52:15.382Z,15.58
2023-05-01T06:53:15.360Z,15.76
2023-05-01T06:54:15.378Z,15.75
2023-05-01T06:55:15.374Z,15.82
2023-05-01T06:56:15.497Z,15.77
2023-05-01T06:57:16.553Z,15.77
2023-05-01T06:58:23.359Z,15.82
2023-05-01T06:59:15.424Z,15.75
2023-05-01T07:00:15.433Z,15.77
2023-05-01T07:01:15.473Z,15.64
2023-05-01T07:02:16.135Z,15.67
2023-05-01T07:03:16.586Z,15.68
2023-05-01T07:04:15.475Z,15.72
2023-05-01T07:05:16.104Z,15.80
2023-05-01T07:06:36.893Z,15.76
2023-05-01T07:07:17.633Z,15.92
2023-05-01T07:08:16.584Z,16.08
2023-05-01T07:09:15.531Z,16.23
2023-05-01T07:10:15.540Z,16.28
2023-05-01T07:11:15.584Z,16.28
2023-05-01T07:12:15.558Z,16.32
2023-05-01T07:13:15.579Z,16.29
2023-05-01T07:14:16.611Z,16.33
2023-05-01T07:15:15.595Z,16.35
2023-05-01T07:16:15.690Z,16.39
2023-05-01T07:17:16.674Z,16.39
2023-05-01T07:18:15.648Z,16.47
2023-05-01T07:19:16.633Z,16.49
2023-05-01T07:20:17.179Z,16.49
2023-05-01T07:21:15.668Z,16.54
2023-05-01T07:22:15.678Z,16.60
2023-05-01T07:23:15.682Z,16.57
2023-05-01T07:24:15.682Z,16.53
2023-05-01T07:25:15.751Z,16.53
2023-05-01T07:26:16.776Z,16.46
2023-05-01T07:27:15.711Z,16.43
2023-05-01T07:28:16.731Z,16.47
2023-05-01T07:29:15.788Z,16.47
2023-05-01T07:30:15.754Z,16.56
2023-05-01T07:31:15.816Z,16.71
2023-05-01T07:32:17.356Z,16.75
2023-05-01T07:33:15.824Z,16.94
2023-05-01T07:34:15.787Z,17.08
2023-05-01T07:35:15.809Z,17.04
2023-05-01T07:36:15.813Z,17.09
2023-05-01T07:37:15.826Z,17.06
2023-05-01T07:38:16.857Z,17.11
2023-05-01T07:39:15.845Z,17.08
2023-05-01T07:40:15.862Z,17.11
2023-05-01T07:41:15.900Z,17.05
2023-05-01T07:42:15.895Z,16.96
2023-05-01T07:43:15.897Z,16.89
2023-05-01T07:44:17.743Z,16.76
2023-05-01T07:45:17.138Z,16.74
2023-05-01T07:46:16.738Z,16.69
2023-05-01T07:47:15.945Z,16.61
2023-05-01T07:48:15.997Z,16.60
2023-05-01T07:49:16.641Z,16.53
2023-05-01T07:50:16.996Z,16.53
2023-05-01T07:51:15.956Z,16.46
2023-05-01T07:52:15.987Z,16.49
2023-05-01T07:53:16.642Z,16.51
2023-05-01T07:54:15.995Z,16.58
2023-05-01T07:55:16.012Z,16.60
2023-05-01T07:56:17.009Z,16.64
2023-05-01T07:57:16.009Z,16.72
2023-05-01T07:58:16.551Z,16.72
2023-05-01T07:59:16.034Z,16.72
2023-05-01T08:00:16.032Z,16.75
2023-05-01T08:01:16.040Z,16.79
2023-05-01T08:02:17.101Z,16.78
2023-05-01T08:03:17.249Z,16.79
2023-05-01T08:04:16.112Z,16.78
2023-05-01T08:05:16.071Z,16.89
2023-05-01T08:06:16.131Z,16.90
2023-05-01T08:07:16.097Z,16.91
2023-05-01T08:08:17.648Z,17.02
2023-05-01T08:09:16.103Z,17.02
2023-05-01T08:10:16.111Z,16.99
2023-05-01T08:11:16.156Z,16.91
2023-05-01T08:12:16.657Z,16.79
2023-05-01T08:13:16.153Z,16.87
2023-05-01T08:14:17.164Z,16.81
2023-05-01T08:15:16.245Z,16.90
2023-05-01T08:16:16.239Z,16.86
2023-05-01T08:17:16.198Z,16.83
2023-05-01T08:18:16.167Z,16.81
2023-05-01T08:19:16.175Z,16.72
2023-05-01T08:20:17.206Z,16.68
2023-05-01T08:21:16.196Z,16.78
2023-05-01T08:22:16.196Z,16.71
2023-05-01T08:23:16.203Z,16.61
2023-05-01T08:24:16.209Z,16.51
2023-05-01T08:25:16.210Z,16.57
2023-05-01T08:26:17.242Z,16.54
2023-05-01T08:27:16.243Z,16.60
2023-05-01T08:28:16.233Z,16.64
2023-05-01T08:29:16.241Z,16.64
2023-05-01T08:30:16.250Z,16.65
2023-05-01T08:31:16.288Z,16.65
2023-05-01T08:32:17.265Z,16.58
2023-05-01T08:33:16.255Z,16.57
2023-05-01T08:34:16.262Z,16.58
2023-05-01T08:35:16.248Z,16.61
2023-05-01T08:36:16.279Z,16.65
2023-05-01T08:37:16.276Z,16.69
2023-05-01T08:38:18.173Z,16.68
2023-05-01T08:39:16.271Z,16.74
2023-05-01T08:40:16.289Z,16.74
2023-05-01T08:41:16.270Z,16.68
2023-05-01T08:42:16.261Z,16.76
2023-05-01T08:43:16.282Z,17.01
2023-05-01T08:44:17.278Z,16.89
2023-05-01T08:45:16.307Z,16.94
2023-05-01T08:46:16.285Z,17.02
2023-05-01T08:47:16.374Z,17.01
2023-05-01T08:48:16.302Z,17.15
2023-05-01T08:49:16.333Z,17.14
2023-05-01T08:50:18.202Z,17.11
2023-05-01T08:51:17.500Z,17.05
2023-05-01T08:52:16.284Z,17.11
2023-05-01T08:53:16.283Z,17.06
2023-05-01T08:54:16.282Z,17.08
2023-05-01T08:55:16.322Z,17.06
2023-05-01T08:56:17.337Z,17.08
2023-05-01T08:57:17.266Z,17.06
2023-05-01T08:58:16.294Z,17.04
2023-05-01T08:59:16.363Z,16.99
2023-05-01T09:00:16.292Z,17.04
2023-05-01T09:01:16.354Z,17.04
2023-05-01T09:02:17.296Z,17.06
2023-05-01T09:03:16.449Z,17.04
2023-05-01T09:04:16.343Z,17.04
2023-05-01T09:05:16.293Z,17.12
2023-05-01T09:06:16.355Z,17.20
2023-05-01T09:07:16.311Z,17.20
2023-05-01T09:08:17.324Z,17.24
2023-05-01T09:09:16.302Z,17.24
2023-05-01T09:10:17.176Z,17.23
2023-05-01T09:11:16.347Z,17.23
2023-05-01T09:12:17.175Z,17.23
2023-05-01T09:13:17.259Z,17.12
2023-05-01T09:14:17.306Z,17.09
2023-05-01T09:15:16.312Z,17.09
2023-05-01T09:16:16.351Z,17.22
2023-05-01T09:17:16.303Z,17.20
2023-05-01T09:18:16.345Z,17.20
2023-05-01T09:19:17.218Z,17.16
2023-05-01T09:20:18.182Z,17.19
2023-05-01T09:21:17.762Z,17.14
2023-05-01T09:22:16.368Z,17.23
2023-05-01T09:23:16.314Z,17.23
2023-05-01T09:24:17.179Z,17.19
2023-05-01T09:25:16.334Z,17.24
2023-05-01T09:26:17.335Z,17.31
2023-05-01T09:27:17.208Z,17.36
2023-05-01T09:28:16.323Z,17.42
2023-05-01T09:29:16.362Z,17.48
2023-05-01T09:30:16.326Z,17.45
2023-05-01T09:31:16.365Z,17.60
2023-05-01T09:32:17.558Z,17.46
2023-05-01T09:33:17.249Z,17.42
2023-05-01T09:34:16.353Z,17.41
2023-05-01T09:35:16.336Z,17.46
2023-05-01T09:36:16.452Z,17.44
2023-05-01T09:37:16.351Z,17.48
2023-05-01T09:38:17.371Z,17.48
2023-05-01T09:39:16.326Z,17.44
2023-05-01T09:40:16.399Z,17.39
2023-05-01T09:41:17.209Z,17.38
2023-05-01T09:42:16.327Z,17.34
2023-05-01T09:43:16.333Z,17.30
2023-05-01T09:44:17.408Z,17.41
2023-05-01T09:45:16.418Z,17.29
2023-05-01T09:46:16.397Z,17.30
2023-05-01T09:47:16.330Z,17.24
2023-05-01T09:48:16.335Z,17.20
2023-05-01T09:49:16.340Z,17.22
2023-05-01T09:50:19.189Z,17.15
2023-05-01T09:51:16.346Z,17.19
2023-05-01T09:52:16.332Z,17.30
2023-05-01T09:53:16.337Z,17.26
2023-05-01T09:54:16.333Z,17.23
2023-05-01T09:55:17.257Z,17.16
2023-05-01T09:56:17.409Z,17.16
2023-05-01T09:57:16.380Z,17.24
2023-05-01T09:58:16.344Z,17.34
2023-05-01T09:59:16.393Z,17.52
2023-05-01T10:00:16.399Z,17.45
2023-05-01T10:01:16.600Z,17.57
2023-05-01T10:02:17.420Z,17.54
2023-05-01T10:03:16.520Z,17.49
2023-05-01T10:04:16.483Z,17.52
2023-05-01T10:05:16.351Z,17.45
2023-05-01T10:06:16.371Z,17.44
2023-05-01T10:07:16.345Z,17.48
2023-05-01T10:08:17.459Z,17.51
2023-05-01T10:09:16.414Z,17.42
2023-05-01T10:10:16.367Z,17.42
2023-05-01T10:11:16.350Z,17.42
2023-05-01T10:12:16.340Z,17.48
2023-05-01T10:13:16.367Z,17.48
2023-05-01T10:14:17.386Z,17.45
2023-05-01T10:15:24.459Z,17.48
2023-05-01T10:16:16.429Z,17.46
2023-05-01T10:17:16.460Z,17.45
2023-05-01T10:18:16.405Z,17.45
2023-05-01T10:19:16.425Z,17.41
2023-05-01T10:20:17.355Z,17.42
2023-05-01T10:21:16.418Z,17.41
2023-05-01T10:22:16.349Z,17.44
2023-05-01T10:23:17.220Z,17.42
2023-05-01T10:24:16.442Z,17.39
2023-05-01T10:25:16.421Z,17.33
2023-05-01T10:26:17.508Z,17.31
2023-05-01T10:27:17.229Z,17.31
2023-05-01T10:28:16.467Z,17.31
2023-05-01T10:29:17.213Z,17.34
2023-05-01T10:30:16.452Z,17.30
2023-05-01T10:31:17.308Z,17.41
2023-05-01T10:32:17.409Z,17.31
2023-05-01T10:33:16.433Z,17.29
2023-05-01T10:34:16.360Z,17.31
2023-05-01T10:35:16.393Z,17.36
2023-05-01T10:36:16.359Z,17.29
2023-05-01T10:37:16.363Z,17.36
2023-05-01T10:38:18.885Z,17.33
2023-05-01T10:39:16.348Z,17.33
2023-05-01T10:40:16.366Z,17.30
2023-05-01T10:41:16.394Z,17.31
2023-05-01T10:42:16.369Z,17.34
2023-05-01T10:43:16.357Z,17.36
2023-05-01T10:44:17.381Z,17.33
2023-05-01T10:45:16.373Z,17.29
2023-05-01T10:46:16.449Z,17.31
2023-05-01T10:47:16.377Z,17.26
2023-05-01T10:48:16.388Z,17.29
2023-05-01T10:49:16.390Z,17.20
2023-05-01T10:50:17.464Z,17.19
2023-05-01T10:51:16.465Z,17.24
2023-05-01T10:52:16.362Z,17.16
2023-05-01T10:53:16.445Z,17.16
2023-05-01T10:54:16.423Z,17.23
2023-05-01T10:55:16.362Z,17.24
2023-05-01T10:56:17.373Z,17.22
2023-05-01T10:57:16.392Z,17.22
2023-05-01T10:58:16.381Z,17.20
2023-05-01T10:59:16.356Z,17.20
2023-05-01T11:00:16.424Z,17.27
2023-05-01T11:01:16.422Z,17.19
2023-05-01T11:02:17.549Z,17.19
2023-05-01T11:03:16.479Z,17.27
2023-05-01T11:04:16.410Z,17.19
2023-05-01T11:05:23.685Z,17.20
2023-05-01T11:06:16.516Z,17.20
2023-05-01T11:07:16.632Z,17.24
2023-05-01T11:08:17.404Z,17.24
2023-05-01T11:09:16.378Z,17.14
2023-05-01T11:10:16.463Z,17.05
2023-05-01T11:11:16.375Z,17.16
2023-05-01T11:12:16.379Z,17.01
2023-05-01T11:13:16.420Z,17.08
2023-05-01T11:14:17.386Z,17.06
2023-05-01T11:15:16.400Z,17.06
2023-05-01T11:16:16.415Z,17.08
2023-05-01T11:17:16.469Z,17.04
2023-05-01T11:18:16.418Z,17.01
2023-05-01T11:19:16.403Z,16.99
2023-05-01T11:20:17.378Z,17.01
2023-05-01T11:21:17.231Z,17.06
2023-05-01T11:22:16.367Z,17.06
2023-05-01T11:23:16.381Z,17.04
2023-05-01T11:24:16.352Z,17.05
2023-05-01T11:25:16.399Z,17.08
2023-05-01T11:26:17.427Z,17.05
2023-05-01T11:27:16.365Z,17.02
2023-05-01T11:28:16.371Z,17.09
2023-05-01T11:29:16.371Z,17.09
2023-05-01T11:30:16.381Z,17.11
2023-05-01T11:31:16.372Z,17.19
2023-05-01T11:32:17.429Z,17.14
2023-05-01T11:33:16.385Z,17.22
2023-05-01T11:34:16.366Z,17.22
2023-05-01T11:35:16.363Z,17.27
2023-05-01T11:36:17.228Z,17.27
2023-05-01T11:37:16.377Z,17.22
2023-05-01T11:38:17.360Z,17.23
2023-05-01T11:39:16.361Z,17.20
2023-05-01T11:40:17.275Z,17.27
2023-05-01T11:41:18.727Z,17.26
2023-05-01T11:42:16.389Z,17.31
2023-05-01T11:43:16.378Z,17.34
2023-05-01T11:44:17.414Z,17.39
2023-05-01T11:45:16.378Z,17.44
2023-05-01T11:46:16.475Z,17.51
2023-05-01T11:47:16.386Z,17.48
2023-05-01T11:48:17.307Z,17.41
2023-05-01T11:49:16.426Z,17.48
2023-05-01T11:50:18.233Z,17.48
2023-05-01T11:51:16.393Z,17.46
2023-05-01T11:52:16.380Z,17.49
2023-05-01T11:53:16.445Z,17.57
2023-05-01T11:54:16.381Z,17.57
2023-05-01T11:55:16.370Z,17.59
2023-05-01T11:56:25.894Z,17.67
2023-05-01T11:57:16.509Z,17.60
2023-05-01T11:58:16.381Z,17.56
2023-05-01T11:59:16.377Z,17.59
2023-05-01T12:00:16.421Z,17.56
2023-05-01T12:01:17.250Z,17.60
2023-05-01T12:02:17.448Z,17.68
2023-05-01T12:03:16.620Z,17.64
2023-05-01T12:04:16.452Z,17.67
2023-05-01T12:05:16.447Z,17.65
2023-05-01T12:06:16.430Z,17.71
2023-05-01T12:07:16.381Z,17.74
2023-05-01T12:08:17.433Z,17.71
2023-05-01T12:09:16.405Z,17.76
2023-05-01T12:10:16.371Z,17.71
2023-05-01T12:11:16.383Z,17.79
2023-05-01T12:12:16.376Z,17.71
2023-05-01T12:13:16.381Z,17.74
2023-05-01T12:14:17.412Z,17.74
2023-05-01T12:15:16.922Z,17.72
2023-05-01T12:16:16.379Z,17.72
2023-05-01T12:17:17.368Z,17.76
2023-05-01T12:18:16.453Z,17.72
2023-05-01T12:19:16.403Z,17.78
2023-05-01T12:20:17.406Z,17.78
2023-05-01T12:21:16.444Z,17.76
2023-05-01T12:22:16.394Z,17.85
2023-05-01T12:23:16.690Z,17.85
2023-05-01T12:24:16.424Z,17.89
2023-05-01T12:25:16.379Z,17.85
2023-05-01T12:26:17.403Z,17.86
2023-05-01T12:27:16.391Z,17.89
2023-05-01T12:28:16.515Z,17.94
2023-05-01T12:29:16.386Z,17.94
2023-05-01T12:30:16.387Z,17.97
2023-05-01T12:31:16.531Z,17.94
2023-05-01T12:32:17.397Z,18.00
2023-05-01T12:33:16.723Z,17.90
2023-05-01T12:34:16.399Z,17.95
2023-05-01T12:35:17.257Z,17.98
2023-05-01T12:36:16.395Z,17.89
2023-05-01T12:37:16.454Z,18.00
2023-05-01T12:38:17.416Z,17.94
2023-05-01T12:39:16.488Z,17.98
2023-05-01T12:40:16.394Z,18.01
2023-05-01T12:41:16.398Z,17.98
2023-05-01T12:42:16.399Z,18.01
2023-05-01T12:43:16.383Z,18.01
2023-05-01T12:44:17.411Z,18.03
2023-05-01T12:45:16.392Z,18.00
2023-05-01T12:46:16.493Z,18.05
2023-05-01T12:47:16.412Z,18.04
2023-05-01T12:48:16.424Z,18.08
2023-05-01T12:49:16.429Z,18.10
2023-05-01T12:50:17.399Z,18.04
2023-05-01T12:51:17.260Z,18.10
2023-05-01T12:52:17.257Z,18.03
2023-05-01T12:53:16.396Z,18.05
2023-05-01T12:54:16.414Z,18.05
2023-05-01T12:55:16.432Z,18.18
2023-05-01T12:56:17.415Z,18.16
2023-05-01T12:57:16.430Z,18.16
2023-05-01T12:58:16.434Z,18.19
2023-05-01T12:59:16.392Z,18.18
2023-05-01T13:00:16.400Z,18.20
2023-05-01T13:01:16.433Z,18.26